Time;durP1;ratioP1;P1;durP2;ratioP2;P2;SDS_P1;SDS_P2;PMS_P1;PMS_P2;Temp;Humidity;BMP_temperature;BMP_pressure;BME280_temperature;BME280_humidity;BME280_pressure;Samples;Min_cycle;Max_cycle;Signal;HPM_P1;HPM_P2
2023/02/12 00:01:08;;;;;;;22.85;12.65;;;;;;;7.41;100.00;103511.09;5085834;28;20134;-68
2023/02/12 00:03:33;;;;;;;28.23;13.55;;;;;;;7.40;100.00;103514.50;5080119;28;20028;-69
2023/02/12 00:06:02;;;;;;;24.45;12.75;;;;;;;7.37;100.00;103511.69;5086525;28;20520;-69
2023/02/12 00:08:27;;;;;;;24.70;13.05;;;;;;;7.37;100.00;103519.53;5087512;28;20024;-68
2023/02/12 00:10:53;;;;;;;26.55;14.18;;;;;;;7.38;100.00;103512.56;5089532;28;20031;-69
2023/02/12 00:13:18;;;;;;;22.30;12.93;;;;;;;7.35;100.00;103510.69;5090134;28;20412;-69
2023/02/12 00:15:43;;;;;;;20.55;13.40;;;;;;;7.35;100.00;103515.91;5090744;28;20024;-69
2023/02/12 00:18:09;;;;;;;23.67;12.73;;;;;;;7.35;100.00;103515.91;5091690;28;20024;-70
2023/02/12 00:20:36;;;;;;;21.80;12.25;;;;;;;7.35;100.00;103515.91;5090693;28;20499;-68
2023/02/12 00:23:01;;;;;;;24.40;12.38;;;;;;;7.34;100.00;103514.09;5084935;28;20035;-68
2023/02/12 00:25:27;;;;;;;24.73;12.35;;;;;;;7.34;100.00;103518.38;5080256;28;20032;-69
2023/02/12 00:27:52;;;;;;;24.25;12.30;;;;;;;7.34;100.00;103516.72;5088748;28;20051;-68
2023/02/12 00:30:17;;;;;;;25.92;12.65;;;;;;;7.35;100.00;103510.69;5089380;28;20066;-68
2023/02/12 00:32:44;;;;;;;23.73;11.73;;;;;;;7.34;100.00;103516.72;5087027;28;20040;-69
2023/02/12 00:35:10;;;;;;;19.85;10.98;;;;;;;7.32;100.00;103515.66;5088526;28;20491;-69
2023/02/12 00:37:35;;;;;;;22.92;11.65;;;;;;;7.31;100.00;103516.50;5091447;28;20024;-68
2023/02/12 00:40:01;;;;;;;26.20;11.73;;;;;;;7.32;100.00;103509.53;5090749;28;20428;-69
2023/02/12 00:42:27;;;;;;;22.88;13.15;;;;;;;7.30;100.00;103506.81;5088403;28;20472;-68
2023/02/12 00:44:52;;;;;;;22.33;12.15;;;;;;;7.29;100.00;103511.94;5088064;28;20057;-68
2023/02/12 00:47:18;;;;;;;19.60;11.50;;;;;;;7.24;100.00;103511.56;5091733;28;20115;-68
2023/02/12 00:49:43;;;;;;;21.65;11.52;;;;;;;7.23;100.00;103514.97;5088359;28;20097;-69
2023/02/12 00:52:09;;;;;;;24.75;12.20;;;;;;;7.24;100.00;103501.09;5088925;28;20032;-69
2023/02/12 00:54:34;;;;;;;21.30;11.32;;;;;;;7.23;100.00;103505.44;5086939;28;20028;-68
2023/02/12 00:56:59;;;;;;;21.55;12.02;;;;;;;7.24;100.00;103502.03;5087134;28;20161;-69
2023/02/12 00:59:25;;;;;;;29.83;12.43;;;;;;;7.23;100.00;103508.06;5084483;28;20147;-68
2023/02/12 01:01:53;;;;;;;23.10;11.82;;;;;;;7.21;100.00;103496.53;5083998;28;20071;-68
2023/02/12 01:04:19;;;;;;;24.13;11.75;;;;;;;7.21;100.00;103506.13;5083554;28;20213;-69
2023/02/12 01:06:44;;;;;;;22.60;12.93;;;;;;;7.21;100.00;103506.13;5089888;28;20143;-69
2023/02/12 01:09:10;;;;;;;19.45;11.13;;;;;;;7.19;100.00;103510.31;5090399;28;20031;-69
2023/02/12 01:11:35;;;;;;;18.55;11.57;;;;;;;7.19;100.00;103510.31;5078552;28;20512;-70
2023/02/12 01:14:01;;;;;;;21.23;12.35;;;;;;;7.18;100.00;103511.16;5090308;28;20030;-69
2023/02/12 01:16:26;;;;;;;21.67;11.85;;;;;;;7.17;100.00;103504.97;5091090;28;20073;-70
2023/02/12 01:18:53;;;;;;;18.70;11.48;;;;;;;7.17;100.00;103499.75;5089833;28;20030;-69
2023/02/12 01:21:25;;;;;;;25.95;12.63;;;;;;;7.17;100.00;103499.75;5091032;28;20051;-70
2023/02/12 01:23:51;;;;;;;25.92;12.02;;;;;;;7.17;100.00;103504.09;5090522;28;20024;-69
2023/02/12 01:26:18;;;;;;;21.95;11.85;;;;;;;7.16;100.00;103492.72;5081457;28;20047;-70
2023/02/12 01:28:48;;;;;;;24.35;11.95;;;;;;;7.17;100.00;103498.84;5086008;28;20038;-68
2023/02/12 01:31:16;;;;;;;21.27;12.45;;;;;;;7.12;100.00;103503.72;5088957;28;20032;-68
2023/02/12 01:33:42;;;;;;;27.35;12.27;;;;;;;7.12;100.00;103500.22;5084046;28;20051;-69
2023/02/12 01:36:09;;;;;;;19.40;11.30;;;;;;;7.11;100.00;103504.53;5085392;28;20388;-69
2023/02/12 01:38:35;;;;;;;27.30;11.38;;;;;;;7.11;100.00;103498.38;5086938;28;20051;-68
2023/02/12 01:41:15;;;;;;;27.05;12.63;;;;;;;7.09;100.00;103496.59;5089913;28;20727;-69
2023/02/12 01:43:40;;;;;;;21.95;11.13;;;;;;;7.11;100.00;103499.31;5085502;28;20028;-68
2023/02/12 01:46:07;;;;;;;23.25;11.73;;;;;;;7.12;100.00;103505.44;5085848;28;20057;-67
2023/02/12 01:48:39;;;;;;;21.92;11.80;;;;;;;7.13;100.00;103507.28;5084273;28;20028;-67
2023/02/12 01:51:08;;;;;;;24.60;11.95;;;;;;;7.11;100.00;103509.78;5075999;28;20476;-68
2023/02/12 01:53:50;;;;;;;23.17;12.05;;;;;;;7.13;100.00;103509.88;5084443;28;20048;-68
2023/02/12 01:56:16;;;;;;;18.23;10.30;;;;;;;7.11;100.00;103506.22;5078876;28;20025;-68
2023/02/12 01:58:44;;;;;;;21.77;11.80;;;;;;;7.09;100.00;103514.91;5091564;28;20031;-68
2023/02/12 02:01:16;;;;;;;25.15;11.88;;;;;;;7.09;100.00;103504.44;5085946;28;20038;-69
2023/02/12 02:03:45;;;;;;;22.80;11.68;;;;;;;7.10;100.00;103505.34;5088248;28;20066;-69
2023/02/12 02:06:14;;;;;;;25.80;11.75;;;;;;;7.09;100.00;103506.13;5094874;28;20040;-68
2023/02/12 02:08:41;;;;;;;25.50;12.15;;;;;;;7.08;100.00;103505.22;5093483;28;20056;-68
2023/02/12 02:14:31;;;;;;;22.63;11.35;;;;;;;7.11;100.00;103503.63;5074830;28;20036;-68
2023/02/12 02:16:41;;;;;;;23.15;12.10;;;;;;;7.12;100.00;103505.44;5094227;28;20038;-67
2023/02/12 02:19:47;;;;;;;17.50;10.45;;;;;;;7.15;100.00;103510.91;5091174;28;20472;-68
2023/02/12 02:22:40;;;;;;;19.90;10.85;;;;;;;7.16;100.00;103512.72;5094055;28;20486;-68
2023/02/12 02:25:24;;;;;;;22.17;11.23;;;;;;;7.13;100.00;103512.50;5083546;28;20388;-68
2023/02/12 02:28:12;;;;;;;24.50;11.30;;;;;;;7.11;100.00;103512.41;5084037;28;20027;-68
2023/02/12 02:31:28;;;;;;;22.75;12.70;;;;;;;7.10;100.00;103513.19;5081701;28;20107;-68
2023/02/12 02:34:07;;;;;;;18.17;11.02;;;;;;;7.08;100.00;103510.47;5069067;28;20123;-68
2023/02/12 02:36:46;;;;;;;17.38;10.15;;;;;;;7.07;100.00;103512.97;5093202;28;20028;-68
2023/02/12 02:39:35;;;;;;;21.63;11.02;;;;;;;7.06;100.00;103511.16;5092687;28;20036;-69
2023/02/12 02:42:15;;;;;;;22.98;11.38;;;;;;;7.05;100.00;103510.25;5084587;28;20048;-70
2023/02/12 02:44:53;;;;;;;26.15;11.88;;;;;;;7.04;100.00;103508.41;5084497;28;20033;-68
2023/02/12 02:47:25;;;;;;;23.98;11.32;;;;;;;7.04;100.00;103505.78;5080544;28;20127;-69
2023/02/12 02:49:58;;;;;;;20.05;10.88;;;;;;;7.04;100.00;103503.19;5083068;28;20027;-67
2023/02/12 02:52:30;;;;;;;21.50;11.27;;;;;;;7.03;100.00;103498.72;5081055;28;20043;-69
2023/02/12 02:55:02;;;;;;;20.55;10.77;;;;;;;7.04;100.00;103500.56;5083697;28;20028;-68
2023/02/12 02:57:34;;;;;;;20.10;9.52;;;;;;;7.03;100.00;103505.69;5085939;28;20081;-70
2023/02/12 03:00:07;;;;;;;15.70;9.43;;;;;;;7.04;100.00;103497.94;5091155;28;20055;-69
2023/02/12 03:02:38;;;;;;;18.65;10.20;;;;;;;7.04;100.00;103503.19;5085268;28;20044;-68
2023/02/12 03:05:11;;;;;;;19.13;10.00;;;;;;;7.04;100.00;103492.72;5089445;28;20048;-68
2023/02/12 03:07:51;;;;;;;17.80;9.80;;;;;;;7.05;100.00;103493.59;5092976;28;20070;-69
2023/02/12 03:10:20;;;;;;;19.05;9.80;;;;;;;7.04;100.00;103497.94;5091156;28;20391;-68
2023/02/12 03:12:52;;;;;;;16.08;8.45;;;;;;;7.04;100.00;103499.63;5084070;28;20024;-68
2023/02/12 03:15:31;;;;;;;18.98;9.15;;;;;;;7.05;100.00;103490.97;5088493;28;20031;-68
2023/02/12 03:18:00;;;;;;;17.20;9.02;;;;;;;7.05;100.00;103494.53;5090618;28;20028;-68
2023/02/12 03:20:31;;;;;;;16.73;9.57;;;;;;;7.04;100.00;103492.72;5091763;28;20028;-68
2023/02/12 03:23:10;;;;;;;13.25;8.35;;;;;;;7.06;100.00;103483.25;5093362;28;20383;-70
2023/02/12 03:26:02;;;;;;;23.27;10.68;;;;;;;7.07;100.00;103497.25;5078924;28;20032;-68
2023/02/12 03:28:31;;;;;;;15.70;8.93;;;;;;;7.05;100.00;103489.31;5085440;28;20057;-69
2023/02/12 03:31:06;;;;;;;13.80;8.00;;;;;;;7.05;100.00;103488.38;5089575;28;20025;-67
2023/02/12 03:33:50;;;;;;;12.15;8.07;;;;;;;7.06;100.00;103490.19;5088449;28;20024;-68
2023/02/12 03:36:42;;;;;;;10.93;7.10;;;;;;;7.07;100.00;103482.44;5089396;28;20020;-68
2023/02/12 03:39:28;;;;;;;11.25;7.05;;;;;;;7.06;100.00;103479.72;5088809;28;20103;-67
2023/02/12 03:42:00;;;;;;;8.15;4.75;;;;;;;7.08;100.00;103479.03;5073408;28;20032;-69
2023/02/12 03:44:59;;;;;;;18.27;6.53;;;;;;;7.11;100.00;103487.91;5089227;28;20399;-69
2023/02/12 03:47:38;;;;;;;8.93;5.97;;;;;;;7.13;100.00;103486.31;5091407;28;20375;-70
2023/02/12 03:50:14;;;;;;;11.68;4.82;;;;;;;7.14;100.00;103490.78;5087207;28;20028;-68
2023/02/12 03:52:40;;;;;;;6.82;4.40;;;;;;;7.17;100.00;103493.59;5092977;28;20020;-68
2023/02/12 03:55:07;;;;;;;14.50;5.45;;;;;;;7.19;100.00;103492.00;5085877;28;20044;-67
2023/02/12 03:57:39;;;;;;;8.15;5.47;;;;;;;7.20;100.00;103496.44;5091012;28;20028;-68
2023/02/12 04:00:09;;;;;;;10.43;5.40;;;;;;;7.21;100.00;103495.66;5084817;28;20115;-68
2023/02/12 04:02:35;;;;;;;10.88;4.55;;;;;;;7.24;100.00;103501.09;5086544;28;20110;-69
2023/02/12 04:05:05;;;;;;;7.43;4.65;;;;;;;7.21;100.00;103495.66;5080249;28;20399;-68
2023/02/12 04:07:31;;;;;;;7.72;4.97;;;;;;;7.21;100.00;103500.88;5083806;28;20023;-68
2023/02/12 04:09:56;;;;;;;8.45;5.03;;;;;;;7.21;100.00;103506.13;5079709;28;20024;-68
2023/02/12 04:12:40;;;;;;;7.95;4.93;;;;;;;7.19;100.00;103502.47;5083064;28;20081;-68
2023/02/12 04:15:05;;;;;;;;;;;;;;;7.20;100.00;103501.69;5087354;28;20085;-69
2023/02/12 04:17:47;;;;;;;6.93;4.78;;;;;;;7.16;100.00;103513.66;5090888;28;19911;-68
2023/02/12 04:20:31;;;;;;;9.07;4.78;;;;;;;7.15;100.00;103513.50;5090544;28;20032;-68
2023/02/12 04:23:40;;;;;;;11.93;5.85;;;;;;;7.13;100.00;103510.78;5091348;28;20490;-68
2023/02/12 04:26:25;;;;;;;6.78;4.10;;;;;;;7.12;100.00;103518.53;5079016;28;20503;-68
2023/02/12 04:29:27;;;;;;;5.47;3.60;;;;;;;7.13;100.00;103522.97;5085662;28;20100;-68
2023/02/12 04:32:14;;;;;;;6.82;3.95;;;;;;;7.13;100.00;103528.22;5091641;28;20035;-68
2023/02/12 04:35:14;;;;;;;4.15;3.17;;;;;;;7.14;100.00;103525.72;5081151;28;20548;-68
2023/02/12 04:38:08;;;;;;;5.05;2.90;;;;;;;7.15;100.00;103532.78;5083466;28;20471;-69
2023/02/12 04:40:35;;;;;;;6.55;4.00;;;;;;;7.16;100.00;103538.91;5083575;28;20086;-68
2023/02/12 04:43:00;;;;;;;5.22;2.67;;;;;;;7.16;100.00;103537.22;5087153;28;20130;-68
2023/02/12 04:45:28;;;;;;;3.15;2.58;;;;;;;7.17;100.00;103535.50;5076506;28;20032;-69
2023/02/12 04:47:54;;;;;;;4.25;2.70;;;;;;;7.17;100.00;103540.75;5091946;28;20032;-68
2023/02/12 04:50:19;;;;;;;9.23;2.45;;;;;;;7.17;100.00;103535.50;5088910;28;20537;-68
2023/02/12 04:52:45;;;;;;;4.32;2.75;;;;;;;7.16;100.00;103536.28;5081877;28;20016;-68
2023/02/12 04:55:11;;;;;;;3.58;2.90;;;;;;;7.14;100.00;103535.28;5075753;28;20035;-68
2023/02/12 04:57:37;;;;;;;2.60;2.40;;;;;;;7.14;100.00;103535.28;5092199;28;20024;-69
2023/02/12 05:00:04;;;;;;;4.88;2.40;;;;;;;7.12;100.00;103536.88;5074453;28;20024;-69
2023/02/12 05:02:30;;;;;;;5.78;3.00;;;;;;;7.13;100.00;103533.47;5083827;28;20020;-68
2023/02/12 05:04:55;;;;;;;4.28;2.60;;;;;;;7.12;100.00;103536.88;5080899;28;20048;-68
2023/02/12 05:07:20;;;;;;;7.28;2.92;;;;;;;7.10;100.00;103534.13;5093569;28;20072;-68
2023/02/12 05:09:46;;;;;;;3.78;2.40;;;;;;;7.09;100.00;103533.25;5081641;28;20111;-69
2023/02/12 05:12:11;;;;;;;3.10;2.58;;;;;;;7.08;100.00;103531.41;5086515;28;20438;-68
2023/02/12 05:14:36;;;;;;;6.05;2.67;;;;;;;7.07;100.00;103528.69;5092128;28;20028;-68
2023/02/12 05:17:02;;;;;;;6.13;2.63;;;;;;;7.07;100.00;103529.56;5082512;28;20020;-68
2023/02/12 05:19:27;;;;;;;4.13;2.78;;;;;;;7.05;100.00;103525.94;5091176;28;20028;-68
2023/02/12 05:21:52;;;;;;;3.55;2.45;;;;;;;7.05;100.00;103525.94;5092555;28;20042;-69
2023/02/12 05:24:18;;;;;;;3.88;2.60;;;;;;;7.04;100.00;103524.13;5093470;28;20036;-68
2023/02/12 05:26:43;;;;;;;2.80;2.60;;;;;;;7.05;100.00;103519.78;5095028;28;20016;-69
2023/02/12 05:29:08;;;;;;;3.90;2.55;;;;;;;7.03;100.00;103527.53;5092972;28;20442;-68
2023/02/12 05:31:34;;;;;;;4.35;2.88;;;;;;;7.02;100.00;103528.31;5094986;28;20475;-69
2023/02/12 05:33:59;;;;;;;3.35;2.45;;;;;;;7.01;100.00;103534.38;5090152;28;20479;-68
2023/02/12 05:36:25;;;;;;;4.53;2.60;;;;;;;6.99;100.00;103533.34;5094904;28;20032;-69
2023/02/12 05:38:52;;;;;;;6.20;3.00;;;;;;;6.99;100.00;103530.72;5085657;28;20023;-68
2023/02/12 05:41:21;;;;;;;4.20;2.72;;;;;;;7.00;100.00;103527.31;5075113;28;20153;-69
2023/02/12 05:43:47;;;;;;;7.85;2.53;;;;;;;7.00;100.00;103527.31;5093574;28;20081;-68
2023/02/12 05:46:12;;;;;;;4.93;2.78;;;;;;;7.00;100.00;103532.56;5094980;28;20022;-69
2023/02/12 05:48:38;;;;;;;5.80;2.75;;;;;;;6.98;100.00;103535.84;5092407;28;20107;-68
2023/02/12 05:51:16;;;;;;;4.82;2.70;;;;;;;6.98;100.00;103534.13;5089688;28;20433;-68
2023/02/12 05:53:42;;;;;;;6.60;2.90;;;;;;;6.96;100.00;103535.72;5086776;28;20023;-70
2023/02/12 05:56:09;;;;;;;5.28;2.65;;;;;;;6.94;100.00;103539.03;5091309;28;20028;-69
2023/02/12 05:58:35;;;;;;;4.78;3.13;;;;;;;6.92;100.00;103541.53;5091255;28;20028;-68
2023/02/12 06:01:00;;;;;;;3.72;2.92;;;;;;;6.91;100.00;103538.00;5076664;28;20035;-67
2023/02/12 06:03:26;;;;;;;6.68;3.50;;;;;;;6.93;100.00;103530.25;5094099;28;20032;-67
2023/02/12 06:05:51;;;;;;;5.57;3.25;;;;;;;6.90;100.00;103533.56;5094503;28;20044;-68
2023/02/12 06:08:16;;;;;;;4.85;3.35;;;;;;;6.90;100.00;103537.88;5113827;28;20106;-69
2023/02/12 06:10:42;;;;;;;4.20;2.95;;;;;;;6.88;100.00;103542.09;5114195;28;20421;-67
2023/02/12 06:13:07;;;;;;;4.70;3.33;;;;;;;6.87;100.00;103529.81;5088801;28;21009;-68
2023/02/12 06:15:35;;;;;;;4.45;3.28;;;;;;;6.88;100.00;103536.88;5089184;28;20036;-69
2023/02/12 06:18:00;;;;;;;4.82;3.17;;;;;;;6.88;100.00;103529.91;5090103;28;20117;-68
2023/02/12 06:20:26;;;;;;;4.60;3.33;;;;;;;6.87;100.00;103532.41;5085444;28;20066;-69
2023/02/12 06:22:51;;;;;;;10.02;3.70;;;;;;;6.87;100.00;103541.16;5087683;28;20027;-68
2023/02/12 06:25:16;;;;;;;5.30;3.83;;;;;;;6.84;100.00;103532.19;5088674;28;20372;-69
2023/02/12 06:27:42;;;;;;;5.05;3.95;;;;;;;6.84;100.00;103529.59;5090736;28;20031;-69
2023/02/12 06:30:08;;;;;;;7.45;4.25;;;;;;;6.84;100.00;103535.72;5093641;28;20468;-69
2023/02/12 06:32:33;;;;;;;5.70;4.50;;;;;;;6.84;100.00;103534.81;5080329;28;20736;-69
2023/02/12 06:34:58;;;;;;;5.70;4.18;;;;;;;6.84;100.00;103532.19;5079730;28;20070;-69
2023/02/12 06:37:23;;;;;;;9.75;4.82;;;;;;;6.84;100.00;103532.19;5093171;28;20028;-69
2023/02/12 06:39:49;;;;;;;7.50;4.60;;;;;;;6.84;100.00;103535.72;5081062;28;20039;-69
2023/02/12 06:42:14;;;;;;;6.07;4.93;;;;;;;6.84;100.00;103529.59;5100063;28;20363;-68
2023/02/12 06:44:39;;;;;;;6.68;4.97;;;;;;;6.83;100.00;103533.00;5087267;28;20387;-69
2023/02/12 06:47:05;;;;;;;6.28;5.18;;;;;;;6.84;100.00;103540.06;5089678;28;20036;-68
2023/02/12 06:49:30;;;;;;;12.82;5.45;;;;;;;6.83;100.00;103538.22;5086280;28;20028;-69
2023/02/12 06:51:55;;;;;;;10.55;5.57;;;;;;;6.83;100.00;103546.06;5090152;28;20068;-69
2023/02/12 06:54:21;;;;;;;7.95;5.32;;;;;;;6.85;100.00;103547.09;5096310;28;20023;-69
2023/02/12 06:56:46;;;;;;;10.30;6.10;;;;;;;6.86;100.00;103548.91;5088194;28;20039;-67
2023/02/12 06:59:14;;;;;;;9.88;6.38;;;;;;;6.88;100.00;103539.50;5093045;28;20032;-70
2023/02/12 07:01:39;;;;;;;4.75;3.72;;;;;;;6.92;100.00;103542.44;5091304;28;20035;-68
2023/02/12 07:04:06;;;;;;;8.70;4.72;;;;;;;6.99;100.00;103551.66;5087687;28;20035;-68
2023/02/12 07:06:34;;;;;;;9.65;5.43;;;;;;;6.99;100.00;103551.66;5092369;28;20102;-69
2023/02/12 07:08:59;;;;;;;10.38;6.03;;;;;;;7.00;100.00;103557.78;5090191;28;20467;-69
2023/02/12 07:11:30;;;;;;;8.30;4.88;;;;;;;6.99;100.00;103554.28;5091520;28;20074;-69
2023/02/12 07:13:56;;;;;;;7.72;5.20;;;;;;;7.00;100.00;103563.03;5085613;28;20024;-68
2023/02/12 07:16:22;;;;;;;7.40;5.68;;;;;;;6.98;100.00;103567.25;5087552;28;20085;-69
2023/02/12 07:18:47;;;;;;;7.22;5.43;;;;;;;6.96;100.00;103566.22;5091270;28;20098;-69
2023/02/12 07:21:14;;;;;;;11.00;5.30;;;;;;;6.96;100.00;103566.22;5092042;28;20115;-69
2023/02/12 07:23:40;;;;;;;6.82;5.07;;;;;;;6.96;100.00;103572.38;5091461;28;20128;-67
2023/02/12 07:26:10;;;;;;;9.57;5.80;;;;;;;6.94;100.00;103583.53;5090669;28;20102;-69
2023/02/12 07:28:35;;;;;;;6.90;5.47;;;;;;;6.92;100.00;103580.81;5086501;28;20107;-69
2023/02/12 07:31:28;;;;;;;7.93;6.03;;;;;;;6.95;100.00;103588.88;5087300;28;20127;-68
2023/02/12 07:33:58;;;;;;;8.90;6.05;;;;;;;6.94;100.00;103587.03;5088935;28;20028;-69
2023/02/12 07:36:28;;;;;;;6.30;5.40;;;;;;;6.96;100.00;103584.53;5088203;28;20038;-69
2023/02/12 07:38:54;;;;;;;10.63;6.00;;;;;;;6.96;100.00;103585.47;5088735;28;20067;-68
2023/02/12 07:41:21;;;;;;;7.85;5.28;;;;;;;6.97;100.00;103589.00;5095106;28;20114;-69
2023/02/12 07:43:52;;;;;;;7.65;4.90;;;;;;;6.99;100.00;103592.66;5091277;27;20027;-67
2023/02/12 07:46:25;;;;;;;6.13;5.00;;;;;;;7.01;100.00;103594.59;5087365;28;20050;-67
2023/02/12 07:48:51;;;;;;;6.00;5.22;;;;;;;7.02;100.00;103590.25;5103451;28;20467;-68
2023/02/12 07:51:20;;;;;;;7.20;5.72;;;;;;;7.03;100.00;103590.38;5101909;28;20020;-68
2023/02/12 07:53:46;;;;;;;8.52;6.22;;;;;;;7.04;100.00;103597.44;5082005;28;20384;-68
2023/02/12 07:56:15;;;;;;;10.07;6.13;;;;;;;7.03;100.00;103600.84;5088976;28;20031;-68
2023/02/12 07:58:43;;;;;;;7.35;5.80;;;;;;;7.04;100.00;103597.44;5089070;28;20035;-67
2023/02/12 08:01:22;;;;;;;9.25;6.30;;;;;;;7.05;100.00;103594.03;5088870;28;20049;-67
2023/02/12 08:03:49;;;;;;;8.85;6.60;;;;;;;7.06;100.00;103594.94;5089216;28;20161;-68
2023/02/12 08:06:22;;;;;;;8.13;6.28;;;;;;;7.09;100.00;103611.78;5079166;28;20047;-68
2023/02/12 08:08:52;;;;;;;8.50;5.80;;;;;;;7.11;100.00;103600.50;5078447;28;20024;-68
2023/02/12 08:11:18;;;;;;;11.50;6.55;;;;;;;7.13;100.00;103596.31;5090178;28;20138;-68
2023/02/12 08:13:44;;;;;;;13.90;6.50;;;;;;;7.13;100.00;103598.91;5091820;28;20172;-68
2023/02/12 08:16:18;;;;;;;12.25;7.32;;;;;;;7.17;100.00;103600.97;5085087;28;20019;-68
2023/02/12 08:18:44;;;;;;;8.27;6.18;;;;;;;7.19;100.00;103607.22;5086309;28;20031;-68
2023/02/12 08:21:12;;;;;;;8.27;6.40;;;;;;;7.22;100.00;103597.00;5081668;28;20019;-68
2023/02/12 08:23:38;;;;;;;12.40;7.22;;;;;;;7.23;100.00;103593.56;5108652;28;20118;-70
2023/02/12 08:26:11;;;;;;;12.30;7.65;;;;;;;7.27;100.00;103603.50;5092091;28;20032;-68
2023/02/12 08:28:40;;;;;;;11.98;7.45;;;;;;;7.29;100.00;103604.50;5092242;28;20039;-68
2023/02/12 08:31:08;;;;;;;9.82;7.47;;;;;;;7.34;100.00;103608.38;5083686;28;20032;-68
2023/02/12 08:33:34;;;;;;;9.82;7.10;;;;;;;7.39;100.00;103608.72;5092900;28;20049;-69
2023/02/12 08:36:09;;;;;;;13.48;7.68;;;;;;;7.41;100.00;103605.41;5085774;28;20012;-68
2023/02/12 08:38:35;;;;;;;11.13;8.07;;;;;;;7.43;100.00;103608.13;5096280;28;20542;-68
2023/02/12 08:41:02;;;;;;;13.35;7.40;;;;;;;7.46;100.00;103615.31;5088941;28;20055;-70
2023/02/12 08:43:28;;;;;;;12.32;7.18;;;;;;;7.50;100.00;103614.75;5102342;28;20024;-69
2023/02/12 08:45:53;;;;;;;12.23;6.97;;;;;;;7.53;100.00;103618.50;5087925;28;20032;-69
2023/02/12 08:48:19;;;;;;;10.13;6.80;;;;;;;7.56;100.00;103620.47;5078803;28;20532;-69
2023/02/12 08:50:46;;;;;;;12.25;6.88;;;;;;;7.58;100.00;103622.41;5089476;28;20024;-69
2023/02/12 08:53:11;;;;;;;13.20;7.45;;;;;;;7.63;100.00;103625.34;5100436;28;20388;-68
2023/02/12 08:55:36;;;;;;;8.82;7.18;;;;;;;7.67;100.00;103626.50;5090872;28;20019;-67
2023/02/12 08:58:02;;;;;;;10.98;6.72;;;;;;;7.71;100.00;103623.28;5084881;28;20442;-69
2023/02/12 09:00:28;;;;;;;11.30;7.03;;;;;;;7.73;100.00;103625.22;5090282;28;20149;-69
2023/02/12 09:02:53;;;;;;;12.20;7.40;;;;;;;7.75;100.00;103639.34;5076742;28;20040;-68
2023/02/12 09:05:18;;;;;;;9.02;6.80;;;;;;;7.80;100.00;103642.31;5088415;28;20043;-68
2023/02/12 09:07:45;;;;;;;10.90;7.65;;;;;;;7.82;100.00;103640.69;5092754;28;20075;-67
2023/02/12 09:10:10;;;;;;;14.40;7.55;;;;;;;7.85;100.00;103634.78;5087286;28;20454;-68
2023/02/12 09:12:35;;;;;;;12.40;7.65;;;;;;;7.88;100.00;103632.38;5094767;28;20403;-69
2023/02/12 09:15:01;;;;;;;12.93;7.53;;;;;;;7.92;100.00;103637.03;5090177;28;20047;-67
2023/02/12 09:17:27;;;;;;;12.35;8.10;;;;;;;7.92;100.00;103637.03;5095122;28;20031;-69
2023/02/12 09:19:53;;;;;;;10.13;8.57;;;;;;;7.94;100.00;103654.69;5093456;28;20213;-69
2023/02/12 09:22:18;;;;;;;17.70;9.25;;;;;;;7.96;100.00;103643.41;5092147;28;20059;-68
2023/02/12 09:24:44;;;;;;;10.32;8.40;;;;;;;7.98;100.00;103650.59;5089472;28;20036;-68
2023/02/12 09:27:09;;;;;;;11.40;8.00;;;;;;;8.01;100.00;103649.91;5093729;28;20024;-68
2023/02/12 09:29:34;;;;;;;15.77;8.50;;;;;;;8.04;100.00;103643.16;5093315;28;20030;-69
2023/02/12 09:32:03;;;;;;;14.43;8.25;;;;;;;8.07;100.00;103646.03;5092592;28;20089;-69
2023/02/12 09:34:28;;;;;;;13.52;8.35;;;;;;;8.07;100.00;103648.66;5089999;28;20070;-70
2023/02/12 09:36:54;;;;;;;12.32;9.13;;;;;;;8.10;100.00;103648.84;5086153;28;20434;-68
2023/02/12 09:39:19;;;;;;;12.85;7.90;;;;;;;8.11;100.00;103641.88;5090536;28;20020;-68
2023/02/12 09:42:09;;;;;;;14.50;8.75;;;;;;;8.17;100.00;103647.59;5081532;28;20475;-69
2023/02/12 09:44:41;;;;;;;11.90;8.27;;;;;;;8.20;100.00;103645.19;5091681;28;20024;-69
2023/02/12 09:47:41;;;;;;;11.95;8.52;;;;;;;8.25;100.00;103640.28;5100086;28;20472;-68
2023/02/12 09:50:20;;;;;;;16.85;9.70;;;;;;;8.30;100.00;103651.09;5083918;28;20032;-69
2023/02/12 09:52:45;;;;;;;15.75;8.57;;;;;;;8.30;100.00;103649.34;5089738;28;20476;-69
2023/02/12 09:55:15;;;;;;;11.23;8.75;;;;;;;8.31;100.00;103645.94;5092239;28;20024;-69
2023/02/12 09:57:41;;;;;;;13.88;8.55;;;;;;;8.31;100.00;103643.31;5088260;28;20059;-70
2023/02/12 10:00:17;;;;;;;13.18;9.30;;;;;;;8.36;100.00;103641.94;5096369;28;20546;-69
2023/02/12 10:02:42;;;;;;;18.95;9.20;;;;;;;8.38;100.00;103649.91;5088168;28;20032;-69
2023/02/12 10:05:21;;;;;;;11.98;8.68;;;;;;;8.43;100.00;103646.81;5091810;28;20042;-69
2023/02/12 10:08:11;;;;;;;11.13;8.35;;;;;;;8.47;100.00;103649.72;5092791;28;20032;-70
2023/02/12 10:10:52;;;;;;;14.38;8.55;;;;;;;8.49;100.00;103648.09;5095123;28;20028;-69
2023/02/12 10:13:34;;;;;;;14.00;8.82;;;;;;;8.46;100.00;103642.63;5101657;28;20031;-71
2023/02/12 10:16:18;;;;;;;17.10;8.20;;;;;;;8.52;100.00;103643.03;5087993;28;20447;-68
2023/02/12 10:18:59;;;;;;;13.98;8.38;;;;;;;8.57;100.00;103647.84;5097591;28;20028;-69
2023/02/12 10:21:37;;;;;;;13.70;8.63;;;;;;;8.58;100.00;103644.38;5097641;28;20031;-69
2023/02/12 10:24:26;;;;;;;14.63;8.70;;;;;;;8.62;100.00;103645.53;5103287;28;20039;-69
2023/02/12 10:27:02;;;;;;;11.90;7.90;;;;;;;8.66;100.00;103642.31;5093973;28;20027;-70
2023/02/12 10:29:34;;;;;;;13.05;8.77;;;;;;;8.70;100.00;103648.69;5096053;28;20028;-71
2023/02/12 10:32:04;;;;;;;12.48;8.63;;;;;;;8.71;100.00;103645.28;5092356;28;20125;-69
2023/02/12 10:34:33;;;;;;;11.13;8.07;;;;;;;8.70;100.00;103649.59;5097727;28;20023;-69
2023/02/12 10:37:25;;;;;;;14.98;9.35;;;;;;;8.76;100.00;103646.47;5102802;28;20103;-69
2023/02/12 10:39:59;;;;;;;11.80;8.40;;;;;;;8.74;100.00;103648.09;5086789;28;20069;-69
2023/02/12 10:42:42;;;;;;;23.33;9.70;;;;;;;8.78;100.00;103647.50;5099942;28;20032;-68
2023/02/12 10:45:12;;;;;;;;;;;;;;;8.82;100.00;103648.59;5090030;28;20028;-68
2023/02/12 10:47:38;;;;;;;18.08;8.93;;;;;;;8.80;100.00;103653.75;5099662;28;20320;-69
2023/02/12 10:50:33;;;;;;;17.90;9.90;;;;;;;8.77;100.00;103646.56;5098098;28;20027;-69
2023/02/12 10:53:02;;;;;;;13.23;8.70;;;;;;;8.80;100.00;103643.25;5100309;28;20048;-68
2023/02/12 10:55:35;;;;;;;16.27;9.15;;;;;;;8.81;100.00;103646.81;5094082;28;20383;-69
2023/02/12 10:58:03;;;;;;;13.27;9.60;;;;;;;8.84;100.00;103647.00;5104680;28;20038;-69
2023/02/12 11:00:34;;;;;;;16.95;9.23;;;;;;;8.84;100.00;103644.38;5094061;28;20032;-67
2023/02/12 11:03:04;;;;;;;15.07;8.90;;;;;;;8.86;100.00;103640.16;5089054;28;20076;-67
2023/02/12 11:05:33;;;;;;;15.18;10.18;;;;;;;8.89;100.00;103640.38;5092919;28;20082;-67
2023/02/12 11:07:58;;;;;;;17.08;9.27;;;;;;;8.87;100.00;103649.84;5093434;28;20165;-68
2023/02/12 11:10:30;;;;;;;13.63;9.63;;;;;;;8.91;100.00;103646.63;5090760;28;20525;-67
2023/02/12 11:12:58;;;;;;;13.40;9.38;;;;;;;8.92;100.00;103645.81;5092675;28;20035;-69
2023/02/12 11:15:26;;;;;;;15.88;9.02;;;;;;;8.90;100.00;103637.84;5092724;28;20028;-69
2023/02/12 11:18:24;;;;;;;17.23;9.98;;;;;;;8.94;100.00;103634.63;5083371;28;20040;-68
2023/02/12 11:21:00;;;;;;;19.15;10.18;;;;;;;8.94;100.00;103637.25;5085983;28;20065;-69
2023/02/12 11:23:39;;;;;;;16.85;10.00;;;;;;;8.94;100.00;103633.72;5088641;28;20024;-67
2023/02/12 11:26:16;;;;;;;15.75;8.88;;;;;;;8.90;99.91;103636.94;5093256;28;20023;-68
2023/02/12 11:28:59;;;;;;;13.73;9.02;;;;;;;8.88;98.99;103642.06;5090505;28;20028;-69
2023/02/12 11:31:27;;;;;;;18.33;8.75;;;;;;;8.90;99.22;103644.81;5092395;28;20028;-67
2023/02/12 11:34:17;;;;;;;15.88;8.35;;;;;;;8.94;100.00;103641.59;5090873;28;20029;-68
2023/02/12 11:36:46;;;;;;;15.07;9.48;;;;;;;8.96;99.20;103642.59;5090561;28;20020;-69
2023/02/12 11:39:35;;;;;;;14.27;9.00;;;;;;;8.92;99.88;103635.31;5092759;28;20028;-68